sensor_id;sensor_type;location;lat;lon;timestamp;P1;durP1;ratioP1;P2;durP2;ratioP2
17983;SDS011;9117;52.420;20.728;2022-12-29T00:01:00;13.37;;;6.43;;
17983;SDS011;9117;52.420;20.728;2022-12-29T00:03:29;15.63;;;7.13;;
17983;SDS011;9117;52.420;20.728;2022-12-29T00:05:57;13.73;;;6.90;;
17983;SDS011;9117;52.420;20.728;2022-12-29T00:08:26;15.50;;;7.20;;
17983;SDS011;9117;52.420;20.728;2022-12-29T00:11:06;13.13;;;7.17;;
17983;SDS011;9117;52.420;20.728;2022-12-29T00:13:35;15.87;;;7.33;;
17983;SDS011;9117;52.420;20.728;2022-12-29T00:16:23;17.90;;;7.50;;
17983;SDS011;9117;52.420;20.728;2022-12-29T00:18:51;19.47;;;8.50;;
17983;SDS011;9117;52.420;20.728;2022-12-29T00:21:20;16.70;;;7.43;;
17983;SDS011;9117;52.420;20.728;2022-12-29T00:24:09;16.87;;;7.33;;
17983;SDS011;9117;52.420;20.728;2022-12-29T00:26:58;14.77;;;7.20;;
17983;SDS011;9117;52.420;20.728;2022-12-29T00:29:54;16.00;;;7.50;;
17983;SDS011;9117;52.420;20.728;2022-12-29T00:32:41;15.57;;;7.03;;
17983;SDS011;9117;52.420;20.728;2022-12-29T00:35:28;18.43;;;6.77;;
17983;SDS011;9117;52.420;20.728;2022-12-29T00:38:00;13.20;;;7.20;;
17983;SDS011;9117;52.420;20.728;2022-12-29T00:40:49;14.47;;;6.67;;
17983;SDS011;9117;52.420;20.728;2022-12-29T00:43:35;16.07;;;7.23;;
17983;SDS011;9117;52.420;20.728;2022-12-29T00:46:21;14.40;;;7.40;;
17983;SDS011;9117;52.420;20.728;2022-12-29T00:48:50;17.27;;;6.80;;
17983;SDS011;9117;52.420;20.728;2022-12-29T00:51:36;16.07;;;7.23;;
17983;SDS011;9117;52.420;20.728;2022-12-29T00:54:04;14.57;;;6.57;;
17983;SDS011;9117;52.420;20.728;2022-12-29T00:56:32;17.93;;;7.70;;
17983;SDS011;9117;52.420;20.728;2022-12-29T00:59:00;11.23;;;6.77;;
17983;SDS011;9117;52.420;20.728;2022-12-29T01:01:29;14.87;;;6.97;;
17983;SDS011;9117;52.420;20.728;2022-12-29T01:03:59;15.67;;;7.27;;
17983;SDS011;9117;52.420;20.728;2022-12-29T01:06:30;12.37;;;6.40;;
17983;SDS011;9117;52.420;20.728;2022-12-29T01:08:58;14.00;;;6.77;;
17983;SDS011;9117;52.420;20.728;2022-12-29T01:11:44;13.73;;;7.03;;
17983;SDS011;9117;52.420;20.728;2022-12-29T01:14:12;12.47;;;6.77;;
17983;SDS011;9117;52.420;20.728;2022-12-29T01:16:43;14.53;;;7.03;;
17983;SDS011;9117;52.420;20.728;2022-12-29T01:19:13;10.57;;;6.10;;
17983;SDS011;9117;52.420;20.728;2022-12-29T01:21:43;12.80;;;5.97;;
17983;SDS011;9117;52.420;20.728;2022-12-29T01:24:11;13.30;;;6.27;;
17983;SDS011;9117;52.420;20.728;2022-12-29T01:26:40;12.77;;;6.43;;
17983;SDS011;9117;52.420;20.728;2022-12-29T01:29:08;13.53;;;5.83;;
17983;SDS011;9117;52.420;20.728;2022-12-29T01:31:36;14.00;;;6.20;;
17983;SDS011;9117;52.420;20.728;2022-12-29T01:34:05;14.20;;;5.63;;
17983;SDS011;9117;52.420;20.728;2022-12-29T01:36:34;15.57;;;6.07;;
17983;SDS011;9117;52.420;20.728;2022-12-29T01:39:02;13.80;;;5.60;;
17983;SDS011;9117;52.420;20.728;2022-12-29T01:41:31;10.97;;;5.63;;
17983;SDS011;9117;52.420;20.728;2022-12-29T01:43:59;11.37;;;5.90;;
17983;SDS011;9117;52.420;20.728;2022-12-29T01:46:29;12.07;;;5.70;;
17983;SDS011;9117;52.420;20.728;2022-12-29T01:49:02;11.40;;;6.03;;
17983;SDS011;9117;52.420;20.728;2022-12-29T01:51:40;14.80;;;6.00;;
17983;SDS011;9117;52.420;20.728;2022-12-29T01:54:11;12.43;;;5.87;;
17983;SDS011;9117;52.420;20.728;2022-12-29T01:56:43;12.90;;;6.13;;
17983;SDS011;9117;52.420;20.728;2022-12-29T01:59:14;14.00;;;5.67;;
17983;SDS011;9117;52.420;20.728;2022-12-29T02:01:45;14.60;;;5.80;;
17983;SDS011;9117;52.420;20.728;2022-12-29T02:04:14;11.53;;;6.07;;
17983;SDS011;9117;52.420;20.728;2022-12-29T02:06:45;10.80;;;5.67;;
17983;SDS011;9117;52.420;20.728;2022-12-29T02:09:17;14.63;;;6.07;;
17983;SDS011;9117;52.420;20.728;2022-12-29T02:11:45;10.83;;;5.67;;
17983;SDS011;9117;52.420;20.728;2022-12-29T02:14:14;11.97;;;5.30;;
17983;SDS011;9117;52.420;20.728;2022-12-29T02:16:57;11.27;;;5.37;;
17983;SDS011;9117;52.420;20.728;2022-12-29T02:22:49;10.57;;;5.20;;
17983;SDS011;9117;52.420;20.728;2022-12-29T02:28:48;10.10;;;4.93;;
17983;SDS011;9117;52.420;20.728;2022-12-29T02:31:36;11.73;;;5.17;;
17983;SDS011;9117;52.420;20.728;2022-12-29T02:34:15;13.53;;;5.80;;
17983;SDS011;9117;52.420;20.728;2022-12-29T02:36:51;10.50;;;4.87;;
17983;SDS011;9117;52.420;20.728;2022-12-29T02:39:28;11.77;;;5.30;;
17983;SDS011;9117;52.420;20.728;2022-12-29T02:42:07;15.20;;;5.80;;
17983;SDS011;9117;52.420;20.728;2022-12-29T02:44:43;11.77;;;5.83;;
17983;SDS011;9117;52.420;20.728;2022-12-29T02:47:23;10.87;;;5.50;;
17983;SDS011;9117;52.420;20.728;2022-12-29T02:49:59;11.63;;;5.43;;
17983;SDS011;9117;52.420;20.728;2022-12-29T02:52:34;11.30;;;5.10;;
17983;SDS011;9117;52.420;20.728;2022-12-29T02:55:05;9.67;;;5.37;;
17983;SDS011;9117;52.420;20.728;2022-12-29T02:57:33;9.20;;;5.13;;
17983;SDS011;9117;52.420;20.728;2022-12-29T03:00:04;12.53;;;5.40;;
17983;SDS011;9117;52.420;20.728;2022-12-29T03:02:42;12.13;;;5.10;;
17983;SDS011;9117;52.420;20.728;2022-12-29T03:05:45;9.93;;;5.13;;
17983;SDS011;9117;52.420;20.728;2022-12-29T03:08:27;10.37;;;5.20;;
17983;SDS011;9117;52.420;20.728;2022-12-29T03:11:05;11.00;;;5.23;;
17983;SDS011;9117;52.420;20.728;2022-12-29T03:13:56;12.57;;;4.57;;
17983;SDS011;9117;52.420;20.728;2022-12-29T03:16:47;11.80;;;5.70;;
17983;SDS011;9117;52.420;20.728;2022-12-29T03:19:21;11.43;;;5.37;;
17983;SDS011;9117;52.420;20.728;2022-12-29T03:21:54;10.07;;;4.50;;
17983;SDS011;9117;52.420;20.728;2022-12-29T03:24:43;9.63;;;4.97;;
17983;SDS011;9117;52.420;20.728;2022-12-29T03:27:15;10.33;;;5.43;;
17983;SDS011;9117;52.420;20.728;2022-12-29T03:29:47;11.10;;;5.00;;
17983;SDS011;9117;52.420;20.728;2022-12-29T03:32:20;10.67;;;4.87;;
17983;SDS011;9117;52.420;20.728;2022-12-29T03:34:52;10.60;;;5.30;;
17983;SDS011;9117;52.420;20.728;2022-12-29T03:37:22;10.53;;;4.93;;
17983;SDS011;9117;52.420;20.728;2022-12-29T03:39:54;15.43;;;6.53;;
17983;SDS011;9117;52.420;20.728;2022-12-29T03:42:23;10.27;;;5.30;;
17983;SDS011;9117;52.420;20.728;2022-12-29T03:44:55;9.73;;;5.67;;
17983;SDS011;9117;52.420;20.728;2022-12-29T03:47:24;10.30;;;4.73;;
17983;SDS011;9117;52.420;20.728;2022-12-29T03:49:54;12.53;;;5.57;;
17983;SDS011;9117;52.420;20.728;2022-12-29T03:52:22;10.77;;;5.57;;
17983;SDS011;9117;52.420;20.728;2022-12-29T03:54:50;11.53;;;5.43;;
17983;SDS011;9117;52.420;20.728;2022-12-29T03:57:18;13.70;;;6.27;;
17983;SDS011;9117;52.420;20.728;2022-12-29T03:59:46;8.77;;;5.10;;
17983;SDS011;9117;52.420;20.728;2022-12-29T04:02:15;13.10;;;5.90;;
17983;SDS011;9117;52.420;20.728;2022-12-29T04:04:43;12.37;;;4.83;;
17983;SDS011;9117;52.420;20.728;2022-12-29T04:07:13;11.30;;;5.73;;
17983;SDS011;9117;52.420;20.728;2022-12-29T04:09:43;11.70;;;5.17;;
17983;SDS011;9117;52.420;20.728;2022-12-29T04:12:11;8.97;;;4.80;;
17983;SDS011;9117;52.420;20.728;2022-12-29T04:14:40;10.30;;;4.57;;
17983;SDS011;9117;52.420;20.728;2022-12-29T04:17:08;8.30;;;4.80;;
17983;SDS011;9117;52.420;20.728;2022-12-29T04:19:37;10.67;;;4.77;;
17983;SDS011;9117;52.420;20.728;2022-12-29T04:22:05;11.70;;;4.63;;
17983;SDS011;9117;52.420;20.728;2022-12-29T04:24:34;11.07;;;5.17;;
17983;SDS011;9117;52.420;20.728;2022-12-29T04:27:02;11.57;;;4.57;;
17983;SDS011;9117;52.420;20.728;2022-12-29T04:29:31;8.77;;;4.67;;
17983;SDS011;9117;52.420;20.728;2022-12-29T04:31:59;9.03;;;4.67;;
17983;SDS011;9117;52.420;20.728;2022-12-29T04:34:27;11.33;;;4.23;;
17983;SDS011;9117;52.420;20.728;2022-12-29T04:36:55;10.17;;;4.47;;
17983;SDS011;9117;52.420;20.728;2022-12-29T04:39:23;10.43;;;4.97;;
17983;SDS011;9117;52.420;20.728;2022-12-29T04:41:53;7.67;;;4.50;;
17983;SDS011;9117;52.420;20.728;2022-12-29T04:44:21;12.47;;;5.20;;
17983;SDS011;9117;52.420;20.728;2022-12-29T04:46:49;8.83;;;4.17;;
17983;SDS011;9117;52.420;20.728;2022-12-29T04:49:17;11.07;;;4.50;;
17983;SDS011;9117;52.420;20.728;2022-12-29T04:51:46;9.57;;;5.07;;
17983;SDS011;9117;52.420;20.728;2022-12-29T04:54:14;7.70;;;3.97;;
17983;SDS011;9117;52.420;20.728;2022-12-29T04:56:42;9.57;;;4.50;;
17983;SDS011;9117;52.420;20.728;2022-12-29T04:59:12;13.30;;;4.40;;
17983;SDS011;9117;52.420;20.728;2022-12-29T05:01:40;7.90;;;4.10;;
17983;SDS011;9117;52.420;20.728;2022-12-29T05:04:08;9.20;;;4.40;;
17983;SDS011;9117;52.420;20.728;2022-12-29T05:06:37;10.60;;;4.67;;
17983;SDS011;9117;52.420;20.728;2022-12-29T05:09:05;10.03;;;4.53;;
17983;SDS011;9117;52.420;20.728;2022-12-29T05:11:33;14.67;;;4.63;;
17983;SDS011;9117;52.420;20.728;2022-12-29T05:14:01;8.10;;;4.43;;
17983;SDS011;9117;52.420;20.728;2022-12-29T05:16:31;8.93;;;4.27;;
17983;SDS011;9117;52.420;20.728;2022-12-29T05:18:59;10.80;;;4.47;;
17983;SDS011;9117;52.420;20.728;2022-12-29T05:21:27;9.33;;;4.67;;
17983;SDS011;9117;52.420;20.728;2022-12-29T05:23:55;8.50;;;4.23;;
17983;SDS011;9117;52.420;20.728;2022-12-29T05:26:24;10.97;;;4.70;;
17983;SDS011;9117;52.420;20.728;2022-12-29T05:28:52;9.67;;;4.67;;
17983;SDS011;9117;52.420;20.728;2022-12-29T05:31:20;9.73;;;4.33;;
17983;SDS011;9117;52.420;20.728;2022-12-29T05:33:50;8.80;;;4.27;;
17983;SDS011;9117;52.420;20.728;2022-12-29T05:36:18;9.37;;;4.27;;
17983;SDS011;9117;52.420;20.728;2022-12-29T05:38:46;9.73;;;4.53;;
17983;SDS011;9117;52.420;20.728;2022-12-29T05:41:14;8.27;;;4.33;;
17983;SDS011;9117;52.420;20.728;2022-12-29T05:43:43;8.20;;;4.40;;
17983;SDS011;9117;52.420;20.728;2022-12-29T05:46:11;7.63;;;4.27;;
17983;SDS011;9117;52.420;20.728;2022-12-29T05:48:40;7.80;;;4.43;;
17983;SDS011;9117;52.420;20.728;2022-12-29T05:51:09;10.20;;;4.33;;
17983;SDS011;9117;52.420;20.728;2022-12-29T05:53:37;9.87;;;4.40;;
17983;SDS011;9117;52.420;20.728;2022-12-29T05:56:06;10.47;;;4.30;;
17983;SDS011;9117;52.420;20.728;2022-12-29T05:58:34;8.67;;;4.50;;
17983;SDS011;9117;52.420;20.728;2022-12-29T06:01:02;9.70;;;4.00;;
17983;SDS011;9117;52.420;20.728;2022-12-29T06:03:30;8.00;;;4.10;;
17983;SDS011;9117;52.420;20.728;2022-12-29T06:05:59;8.87;;;4.73;;
17983;SDS011;9117;52.420;20.728;2022-12-29T06:08:28;11.43;;;4.63;;
17983;SDS011;9117;52.420;20.728;2022-12-29T06:10:57;12.67;;;4.33;;
17983;SDS011;9117;52.420;20.728;2022-12-29T06:13:25;6.93;;;4.43;;
17983;SDS011;9117;52.420;20.728;2022-12-29T06:15:53;9.57;;;4.73;;
17983;SDS011;9117;52.420;20.728;2022-12-29T06:18:22;9.70;;;4.40;;
17983;SDS011;9117;52.420;20.728;2022-12-29T06:20:50;8.67;;;4.53;;
17983;SDS011;9117;52.420;20.728;2022-12-29T06:23:18;8.63;;;4.00;;
17983;SDS011;9117;52.420;20.728;2022-12-29T06:25:48;8.97;;;3.87;;
17983;SDS011;9117;52.420;20.728;2022-12-29T06:28:16;9.50;;;4.90;;
17983;SDS011;9117;52.420;20.728;2022-12-29T06:30:44;11.27;;;5.03;;
17983;SDS011;9117;52.420;20.728;2022-12-29T06:33:13;8.77;;;4.37;;
17983;SDS011;9117;52.420;20.728;2022-12-29T06:35:42;9.53;;;4.43;;
17983;SDS011;9117;52.420;20.728;2022-12-29T06:38:12;8.27;;;4.87;;
17983;SDS011;9117;52.420;20.728;2022-12-29T06:40:41;9.83;;;4.70;;
17983;SDS011;9117;52.420;20.728;2022-12-29T06:43:12;9.53;;;4.77;;
17983;SDS011;9117;52.420;20.728;2022-12-29T06:45:41;13.43;;;5.23;;
17983;SDS011;9117;52.420;20.728;2022-12-29T06:48:09;11.53;;;5.10;;
17983;SDS011;9117;52.420;20.728;2022-12-29T06:50:37;14.97;;;5.07;;
17983;SDS011;9117;52.420;20.728;2022-12-29T06:53:05;13.27;;;4.93;;
17983;SDS011;9117;52.420;20.728;2022-12-29T06:55:33;12.90;;;5.23;;
17983;SDS011;9117;52.420;20.728;2022-12-29T06:58:02;10.67;;;4.90;;
17983;SDS011;9117;52.420;20.728;2022-12-29T07:00:31;9.63;;;4.90;;
17983;SDS011;9117;52.420;20.728;2022-12-29T07:03:00;11.83;;;5.20;;
17983;SDS011;9117;52.420;20.728;2022-12-29T07:05:29;10.70;;;5.07;;
17983;SDS011;9117;52.420;20.728;2022-12-29T07:07:58;12.30;;;5.50;;
17983;SDS011;9117;52.420;20.728;2022-12-29T07:10:27;11.77;;;5.20;;
17983;SDS011;9117;52.420;20.728;2022-12-29T07:12:55;12.60;;;5.10;;
17983;SDS011;9117;52.420;20.728;2022-12-29T07:15:24;10.23;;;5.43;;
17983;SDS011;9117;52.420;20.728;2022-12-29T07:17:54;10.93;;;4.80;;
17983;SDS011;9117;52.420;20.728;2022-12-29T07:20:22;15.97;;;4.90;;
17983;SDS011;9117;52.420;20.728;2022-12-29T07:22:52;11.57;;;5.13;;
17983;SDS011;9117;52.420;20.728;2022-12-29T07:25:21;12.80;;;5.07;;
17983;SDS011;9117;52.420;20.728;2022-12-29T07:27:49;10.33;;;4.67;;
17983;SDS011;9117;52.420;20.728;2022-12-29T07:30:18;8.47;;;4.30;;
17983;SDS011;9117;52.420;20.728;2022-12-29T07:32:46;9.70;;;4.70;;
17983;SDS011;9117;52.420;20.728;2022-12-29T07:35:16;8.17;;;4.30;;
17983;SDS011;9117;52.420;20.728;2022-12-29T07:37:44;12.27;;;4.73;;
17983;SDS011;9117;52.420;20.728;2022-12-29T07:40:13;9.53;;;4.47;;
17983;SDS011;9117;52.420;20.728;2022-12-29T07:42:41;8.63;;;4.23;;
17983;SDS011;9117;52.420;20.728;2022-12-29T07:45:10;10.07;;;5.03;;
17983;SDS011;9117;52.420;20.728;2022-12-29T07:47:38;11.13;;;5.43;;
17983;SDS011;9117;52.420;20.728;2022-12-29T07:50:06;9.50;;;4.50;;
17983;SDS011;9117;52.420;20.728;2022-12-29T07:52:36;8.97;;;4.17;;
17983;SDS011;9117;52.420;20.728;2022-12-29T07:55:05;7.97;;;4.10;;
17983;SDS011;9117;52.420;20.728;2022-12-29T07:57:34;9.30;;;4.20;;
17983;SDS011;9117;52.420;20.728;2022-12-29T08:00:02;9.90;;;4.27;;
17983;SDS011;9117;52.420;20.728;2022-12-29T08:02:31;9.63;;;4.27;;
17983;SDS011;9117;52.420;20.728;2022-12-29T08:04:59;7.73;;;3.77;;
17983;SDS011;9117;52.420;20.728;2022-12-29T08:07:28;9.93;;;4.50;;
17983;SDS011;9117;52.420;20.728;2022-12-29T08:09:57;8.80;;;4.57;;
17983;SDS011;9117;52.420;20.728;2022-12-29T08:12:26;10.80;;;4.90;;
17983;SDS011;9117;52.420;20.728;2022-12-29T08:14:54;9.43;;;4.20;;
17983;SDS011;9117;52.420;20.728;2022-12-29T08:17:22;10.03;;;4.77;;
17983;SDS011;9117;52.420;20.728;2022-12-29T08:19:50;7.33;;;3.83;;
17983;SDS011;9117;52.420;20.728;2022-12-29T08:22:18;7.70;;;4.30;;
17983;SDS011;9117;52.420;20.728;2022-12-29T08:24:47;10.70;;;4.60;;
17983;SDS011;9117;52.420;20.728;2022-12-29T08:27:16;7.77;;;4.33;;
17983;SDS011;9117;52.420;20.728;2022-12-29T08:29:46;10.40;;;4.90;;
17983;SDS011;9117;52.420;20.728;2022-12-29T08:32:14;10.13;;;3.90;;
17983;SDS011;9117;52.420;20.728;2022-12-29T08:34:43;8.47;;;4.13;;
17983;SDS011;9117;52.420;20.728;2022-12-29T08:37:11;10.73;;;5.43;;
17983;SDS011;9117;52.420;20.728;2022-12-29T08:39:39;8.07;;;4.33;;
17983;SDS011;9117;52.420;20.728;2022-12-29T08:42:07;10.83;;;4.53;;
17983;SDS011;9117;52.420;20.728;2022-12-29T08:44:37;12.93;;;4.20;;
17983;SDS011;9117;52.420;20.728;2022-12-29T08:47:05;9.60;;;4.53;;
17983;SDS011;9117;52.420;20.728;2022-12-29T08:49:34;9.67;;;4.40;;
17983;SDS011;9117;52.420;20.728;2022-12-29T08:52:03;7.93;;;4.17;;
17983;SDS011;9117;52.420;20.728;2022-12-29T08:54:31;6.93;;;3.93;;
17983;SDS011;9117;52.420;20.728;2022-12-29T08:57:00;8.07;;;4.17;;
17983;SDS011;9117;52.420;20.728;2022-12-29T08:59:28;9.53;;;4.20;;
17983;SDS011;9117;52.420;20.728;2022-12-29T09:01:57;8.77;;;4.10;;
17983;SDS011;9117;52.420;20.728;2022-12-29T09:04:26;8.17;;;4.10;;
17983;SDS011;9117;52.420;20.728;2022-12-29T09:06:55;8.97;;;4.30;;
17983;SDS011;9117;52.420;20.728;2022-12-29T09:09:23;9.23;;;4.47;;
17983;SDS011;9117;52.420;20.728;2022-12-29T09:11:51;8.67;;;3.67;;
17983;SDS011;9117;52.420;20.728;2022-12-29T09:14:20;9.13;;;4.60;;
17983;SDS011;9117;52.420;20.728;2022-12-29T09:16:50;10.07;;;4.73;;
17983;SDS011;9117;52.420;20.728;2022-12-29T09:19:37;12.23;;;4.17;;
17983;SDS011;9117;52.420;20.728;2022-12-29T09:22:05;8.33;;;4.20;;
17983;SDS011;9117;52.420;20.728;2022-12-29T09:24:34;8.37;;;4.53;;
17983;SDS011;9117;52.420;20.728;2022-12-29T09:27:02;7.10;;;4.20;;
17983;SDS011;9117;52.420;20.728;2022-12-29T09:29:30;9.10;;;4.67;;
17983;SDS011;9117;52.420;20.728;2022-12-29T09:31:59;7.73;;;4.37;;
17983;SDS011;9117;52.420;20.728;2022-12-29T09:34:27;7.93;;;4.27;;
17983;SDS011;9117;52.420;20.728;2022-12-29T09:36:57;9.27;;;4.03;;
17983;SDS011;9117;52.420;20.728;2022-12-29T09:39:25;9.10;;;4.17;;
17983;SDS011;9117;52.420;20.728;2022-12-29T09:41:56;9.40;;;4.20;;
17983;SDS011;9117;52.420;20.728;2022-12-29T09:44:30;8.57;;;4.03;;
17983;SDS011;9117;52.420;20.728;2022-12-29T09:47:14;8.67;;;4.40;;
17983;SDS011;9117;52.420;20.728;2022-12-29T09:49:45;10.83;;;4.70;;
17983;SDS011;9117;52.420;20.728;2022-12-29T09:52:18;8.53;;;4.60;;
17983;SDS011;9117;52.420;20.728;2022-12-29T09:54:52;8.77;;;4.13;;
17983;SDS011;9117;52.420;20.728;2022-12-29T09:57:33;10.17;;;4.23;;
17983;SDS011;9117;52.420;20.728;2022-12-29T10:00:06;10.43;;;4.80;;
17983;SDS011;9117;52.420;20.728;2022-12-29T10:02:39;9.60;;;4.47;;
17983;SDS011;9117;52.420;20.728;2022-12-29T10:05:18;12.37;;;5.00;;
17983;SDS011;9117;52.420;20.728;2022-12-29T10:07:58;10.10;;;4.57;;
17983;SDS011;9117;52.420;20.728;2022-12-29T10:10:43;8.73;;;4.23;;
17983;SDS011;9117;52.420;20.728;2022-12-29T10:13:28;9.23;;;4.80;;
17983;SDS011;9117;52.420;20.728;2022-12-29T10:16:06;7.07;;;4.13;;
17983;SDS011;9117;52.420;20.728;2022-12-29T10:21:39;9.33;;;4.60;;
17983;SDS011;9117;52.420;20.728;2022-12-29T10:24:21;8.63;;;4.33;;
17983;SDS011;9117;52.420;20.728;2022-12-29T10:26:52;8.33;;;4.17;;
17983;SDS011;9117;52.420;20.728;2022-12-29T10:29:22;11.80;;;4.77;;
17983;SDS011;9117;52.420;20.728;2022-12-29T10:31:54;10.30;;;4.67;;
17983;SDS011;9117;52.420;20.728;2022-12-29T10:34:27;7.90;;;4.00;;
17983;SDS011;9117;52.420;20.728;2022-12-29T10:37:00;9.60;;;4.57;;
17983;SDS011;9117;52.420;20.728;2022-12-29T10:39:33;10.03;;;4.40;;
17983;SDS011;9117;52.420;20.728;2022-12-29T10:42:09;10.20;;;5.00;;
17983;SDS011;9117;52.420;20.728;2022-12-29T10:44:48;8.43;;;4.53;;
17983;SDS011;9117;52.420;20.728;2022-12-29T10:47:17;10.07;;;4.70;;
17983;SDS011;9117;52.420;20.728;2022-12-29T10:49:47;10.50;;;4.60;;
17983;SDS011;9117;52.420;20.728;2022-12-29T10:52:17;9.13;;;4.40;;
17983;SDS011;9117;52.420;20.728;2022-12-29T10:54:49;11.13;;;4.73;;
17983;SDS011;9117;52.420;20.728;2022-12-29T10:57:24;10.67;;;4.97;;
17983;SDS011;9117;52.420;20.728;2022-12-29T10:59:54;11.20;;;4.97;;
17983;SDS011;9117;52.420;20.728;2022-12-29T11:02:26;9.20;;;4.80;;
17983;SDS011;9117;52.420;20.728;2022-12-29T11:05:12;10.07;;;4.93;;
17983;SDS011;9117;52.420;20.728;2022-12-29T11:07:47;9.83;;;4.93;;
17983;SDS011;9117;52.420;20.728;2022-12-29T11:10:21;10.60;;;5.17;;
17983;SDS011;9117;52.420;20.728;2022-12-29T11:12:58;10.13;;;5.23;;
17983;SDS011;9117;52.420;20.728;2022-12-29T11:15:28;10.77;;;5.10;;
17983;SDS011;9117;52.420;20.728;2022-12-29T11:18:08;11.53;;;5.30;;
17983;SDS011;9117;52.420;20.728;2022-12-29T11:20:46;11.00;;;5.33;;
17983;SDS011;9117;52.420;20.728;2022-12-29T11:23:26;13.57;;;5.23;;
17983;SDS011;9117;52.420;20.728;2022-12-29T11:26:16;11.60;;;4.90;;
17983;SDS011;9117;52.420;20.728;2022-12-29T11:28:47;9.77;;;4.43;;
17983;SDS011;9117;52.420;20.728;2022-12-29T11:31:45;12.57;;;5.60;;
17983;SDS011;9117;52.420;20.728;2022-12-29T11:34:19;10.13;;;4.83;;
17983;SDS011;9117;52.420;20.728;2022-12-29T11:36:49;11.40;;;5.77;;
17983;SDS011;9117;52.420;20.728;2022-12-29T11:39:25;11.03;;;4.70;;
17983;SDS011;9117;52.420;20.728;2022-12-29T11:41:57;12.53;;;5.57;;
17983;SDS011;9117;52.420;20.728;2022-12-29T11:44:26;11.87;;;5.63;;
17983;SDS011;9117;52.420;20.728;2022-12-29T11:46:55;13.93;;;6.00;;
17983;SDS011;9117;52.420;20.728;2022-12-29T11:49:24;12.53;;;5.50;;
17983;SDS011;9117;52.420;20.728;2022-12-29T11:51:53;11.10;;;5.17;;
17983;SDS011;9117;52.420;20.728;2022-12-29T11:54:23;9.47;;;5.20;;
17983;SDS011;9117;52.420;20.728;2022-12-29T11:56:54;9.93;;;5.20;;
17983;SDS011;9117;52.420;20.728;2022-12-29T11:59:34;9.37;;;5.13;;
17983;SDS011;9117;52.420;20.728;2022-12-29T12:02:18;12.67;;;5.60;;
17983;SDS011;9117;52.420;20.728;2022-12-29T12:05:15;11.13;;;5.10;;
17983;SDS011;9117;52.420;20.728;2022-12-29T12:07:55;10.17;;;5.50;;
17983;SDS011;9117;52.420;20.728;2022-12-29T12:10:29;11.40;;;5.17;;
17983;SDS011;9117;52.420;20.728;2022-12-29T12:13:06;9.57;;;5.60;;
17983;SDS011;9117;52.420;20.728;2022-12-29T12:15:44;11.27;;;5.30;;
17983;SDS011;9117;52.420;20.728;2022-12-29T12:18:25;12.77;;;5.20;;
17983;SDS011;9117;52.420;20.728;2022-12-29T12:21:04;12.37;;;5.00;;
17983;SDS011;9117;52.420;20.728;2022-12-29T12:23:40;9.97;;;4.90;;
17983;SDS011;9117;52.420;20.728;2022-12-29T12:26:16;10.93;;;5.33;;
17983;SDS011;9117;52.420;20.728;2022-12-29T12:28:49;9.73;;;4.67;;
17983;SDS011;9117;52.420;20.728;2022-12-29T12:31:27;11.73;;;5.53;;
17983;SDS011;9117;52.420;20.728;2022-12-29T12:34:10;12.83;;;5.30;;
17983;SDS011;9117;52.420;20.728;2022-12-29T12:36:47;12.90;;;5.00;;
17983;SDS011;9117;52.420;20.728;2022-12-29T12:39:26;9.87;;;4.97;;
17983;SDS011;9117;52.420;20.728;2022-12-29T12:42:03;9.13;;;4.60;;
17983;SDS011;9117;52.420;20.728;2022-12-29T12:44:45;11.10;;;4.83;;
17983;SDS011;9117;52.420;20.728;2022-12-29T12:47:31;9.60;;;4.67;;
17983;SDS011;9117;52.420;20.728;2022-12-29T12:50:18;9.13;;;4.63;;
17983;SDS011;9117;52.420;20.728;2022-12-29T12:53:04;9.80;;;5.00;;
17983;SDS011;9117;52.420;20.728;2022-12-29T12:55:55;10.50;;;5.27;;
17983;SDS011;9117;52.420;20.728;2022-12-29T12:58:36;14.70;;;5.23;;
17983;SDS011;9117;52.420;20.728;2022-12-29T13:01:11;11.43;;;5.93;;
17983;SDS011;9117;52.420;20.728;2022-12-29T13:03:57;12.10;;;5.33;;
17983;SDS011;9117;52.420;20.728;2022-12-29T13:06:41;13.40;;;5.03;;
17983;SDS011;9117;52.420;20.728;2022-12-29T13:09:22;10.27;;;5.47;;
17983;SDS011;9117;52.420;20.728;2022-12-29T13:12:02;12.33;;;5.10;;
17983;SDS011;9117;52.420;20.728;2022-12-29T13:14:41;11.47;;;5.63;;
17983;SDS011;9117;52.420;20.728;2022-12-29T13:17:24;10.43;;;5.70;;
17983;SDS011;9117;52.420;20.728;2022-12-29T13:20:01;10.67;;;5.37;;
17983;SDS011;9117;52.420;20.728;2022-12-29T13:22:38;11.33;;;5.10;;
17983;SDS011;9117;52.420;20.728;2022-12-29T13:25:20;13.13;;;5.60;;
17983;SDS011;9117;52.420;20.728;2022-12-29T13:27:58;12.37;;;5.43;;
17983;SDS011;9117;52.420;20.728;2022-12-29T13:30:32;11.20;;;5.57;;
17983;SDS011;9117;52.420;20.728;2022-12-29T13:33:06;12.40;;;5.17;;
17983;SDS011;9117;52.420;20.728;2022-12-29T13:35:52;8.57;;;5.20;;
17983;SDS011;9117;52.420;20.728;2022-12-29T13:38:29;10.50;;;5.30;;
17983;SDS011;9117;52.420;20.728;2022-12-29T13:41:02;9.17;;;5.60;;
17983;SDS011;9117;52.420;20.728;2022-12-29T13:43:34;9.33;;;4.70;;
17983;SDS011;9117;52.420;20.728;2022-12-29T13:46:07;9.20;;;5.57;;
17983;SDS011;9117;52.420;20.728;2022-12-29T13:48:41;12.10;;;5.17;;
17983;SDS011;9117;52.420;20.728;2022-12-29T13:51:15;11.07;;;5.50;;
17983;SDS011;9117;52.420;20.728;2022-12-29T13:53:56;11.77;;;5.23;;
17983;SDS011;9117;52.420;20.728;2022-12-29T13:56:34;9.50;;;5.37;;
17983;SDS011;9117;52.420;20.728;2022-12-29T13:59:11;9.83;;;5.20;;
17983;SDS011;9117;52.420;20.728;2022-12-29T14:01:48;11.90;;;5.40;;
17983;SDS011;9117;52.420;20.728;2022-12-29T14:04:22;15.50;;;6.87;;
17983;SDS011;9117;52.420;20.728;2022-12-29T14:07:00;14.00;;;6.10;;
17983;SDS011;9117;52.420;20.728;2022-12-29T14:09:38;13.23;;;6.00;;
17983;SDS011;9117;52.420;20.728;2022-12-29T14:15:14;11.53;;;5.43;;
17983;SDS011;9117;52.420;20.728;2022-12-29T14:18:01;11.87;;;5.13;;
17983;SDS011;9117;52.420;20.728;2022-12-29T14:20:32;9.87;;;5.37;;
17983;SDS011;9117;52.420;20.728;2022-12-29T14:23:14;15.40;;;5.50;;
17983;SDS011;9117;52.420;20.728;2022-12-29T14:25:55;11.43;;;5.37;;
17983;SDS011;9117;52.420;20.728;2022-12-29T14:28:37;10.73;;;4.77;;
17983;SDS011;9117;52.420;20.728;2022-12-29T14:31:18;12.03;;;5.43;;
17983;SDS011;9117;52.420;20.728;2022-12-29T14:37:22;10.00;;;5.10;;
17983;SDS011;9117;52.420;20.728;2022-12-29T14:40:03;13.97;;;6.57;;
17983;SDS011;9117;52.420;20.728;2022-12-29T14:42:34;11.97;;;5.80;;
17983;SDS011;9117;52.420;20.728;2022-12-29T14:45:02;13.87;;;6.17;;
17983;SDS011;9117;52.420;20.728;2022-12-29T14:47:35;15.33;;;6.93;;
17983;SDS011;9117;52.420;20.728;2022-12-29T14:50:07;11.70;;;5.80;;
17983;SDS011;9117;52.420;20.728;2022-12-29T14:52:43;14.60;;;5.97;;
17983;SDS011;9117;52.420;20.728;2022-12-29T14:55:31;12.60;;;5.50;;
17983;SDS011;9117;52.420;20.728;2022-12-29T14:58:06;14.07;;;6.03;;
17983;SDS011;9117;52.420;20.728;2022-12-29T15:00:42;11.80;;;5.87;;
17983;SDS011;9117;52.420;20.728;2022-12-29T15:03:13;13.33;;;6.53;;
17983;SDS011;9117;52.420;20.728;2022-12-29T15:05:45;14.67;;;5.53;;
17983;SDS011;9117;52.420;20.728;2022-12-29T15:08:18;11.67;;;6.23;;
17983;SDS011;9117;52.420;20.728;2022-12-29T15:10:51;10.97;;;5.57;;
17983;SDS011;9117;52.420;20.728;2022-12-29T15:13:23;11.00;;;6.23;;
17983;SDS011;9117;52.420;20.728;2022-12-29T15:15:59;11.87;;;5.77;;
17983;SDS011;9117;52.420;20.728;2022-12-29T15:18:28;12.37;;;5.83;;
17983;SDS011;9117;52.420;20.728;2022-12-29T15:20:58;15.93;;;6.43;;
17983;SDS011;9117;52.420;20.728;2022-12-29T15:23:28;20.60;;;6.47;;
17983;SDS011;9117;52.420;20.728;2022-12-29T15:26:00;13.73;;;6.03;;
17983;SDS011;9117;52.420;20.728;2022-12-29T15:28:36;16.53;;;6.93;;